Time;durP1;ratioP1;P1;durP2;ratioP2;P2;SDS_P1;SDS_P2;PMS_P1;PMS_P2;Temp;Humidity;BMP_temperature;BMP_pressure;BME280_temperature;BME280_humidity;BME280_pressure;Samples;Min_cycle;Max_cycle;Signal;HPM_P1;HPM_P2
2023/02/26 00:00:24;;;;;;;3.10;1.08;;;;;;;-0.13;100.00;101351.66;6315386;28;20446;-72
2023/02/26 00:03:25;;;;;;;3.55;0.70;;;;;;;-0.14;100.00;101345.59;6324290;28;20559;-72
2023/02/26 00:06:31;;;;;;;0.63;0.57;;;;;;;-0.09;100.00;101351.66;6316235;28;20044;-74
2023/02/26 00:09:32;;;;;;;0.60;0.57;;;;;;;-0.28;100.00;101361.09;6314140;28;20056;-74
2023/02/26 00:12:34;;;;;;;3.83;0.82;;;;;;;-0.18;100.00;101358.50;6320967;28;20074;-74
2023/02/26 00:15:36;;;;;;;1.50;0.70;;;;;;;-0.19;100.00;101368.00;6326978;28;20075;-74
2023/02/26 00:18:38;;;;;;;0.60;0.43;;;;;;;-0.20;100.00;101378.31;6329032;28;20455;-74
2023/02/26 00:21:41;;;;;;;1.67;0.65;;;;;;;-0.19;100.00;101382.63;6325983;28;20044;-74
2023/02/26 00:24:42;;;;;;;2.03;0.60;;;;;;;-0.26;100.00;101384.34;6309406;28;20048;-74
2023/02/26 00:27:44;;;;;;;3.50;0.70;;;;;;;-0.28;100.00;101386.06;6309210;28;20048;-72
2023/02/26 00:30:46;;;;;;;1.58;0.57;;;;;;;-0.30;100.00;101393.81;6308502;28;20447;-74
2023/02/26 00:33:48;;;;;;;3.72;0.80;;;;;;;-0.31;100.00;101396.41;6318555;28;20044;-74
2023/02/26 00:37:06;;;;;;;4.28;1.02;;;;;;;-0.39;100.00;101404.13;6328343;28;20448;-72
2023/02/26 00:40:20;;;;;;;6.72;0.90;;;;;;;-0.39;100.00;101408.44;6328577;28;20040;-74
2023/02/26 00:43:25;;;;;;;1.00;0.68;;;;;;;-0.42;100.00;101404.09;6328282;28;20117;-74
2023/02/26 00:46:37;;;;;;;0.95;0.65;;;;;;;-0.46;100.00;101409.25;6326631;28;20146;-74
2023/02/26 00:49:49;;;;;;;3.10;0.85;;;;;;;-0.42;100.00;101409.28;6328219;28;20052;-74
2023/02/26 00:53:03;;;;;;;1.38;0.93;;;;;;;-0.46;100.00;101411.84;6328306;28;20042;-73
2023/02/26 00:56:04;;;;;;;0.40;0.40;;;;;;;-0.52;100.00;101415.28;6328139;28;20432;-73
2023/02/26 00:59:06;;;;;;;1.67;1.02;;;;;;;-0.48;100.00;101417.00;6313380;28;20046;-74
2023/02/26 01:02:07;;;;;;;1.17;0.55;;;;;;;-0.56;100.00;101414.41;6305369;28;20081;-72
2023/02/26 01:05:11;;;;;;;1.67;0.65;;;;;;;-0.43;100.00;101414.44;6302576;28;20466;-73
2023/02/26 01:08:19;;;;;;;1.88;0.50;;;;;;;-0.41;100.00;101423.03;6302448;28;20040;-74
2023/02/26 01:11:21;;;;;;;0.57;0.50;;;;;;;-0.46;100.00;101428.19;6302929;28;20055;-74
2023/02/26 01:14:24;;;;;;;4.30;0.80;;;;;;;-0.43;100.00;101428.22;6302416;28;20390;-74
2023/02/26 01:17:32;;;;;;;1.65;1.05;;;;;;;-0.46;100.00;101432.50;6309010;28;20055;-74
2023/02/26 01:20:39;;;;;;;5.07;0.82;;;;;;;-0.59;100.00;101441.91;6310564;28;20052;-73
2023/02/26 01:23:47;;;;;;;1.30;1.08;;;;;;;-0.52;100.00;101441.09;6301774;28;20071;-74
2023/02/26 01:26:49;;;;;;;11.40;1.15;;;;;;;-0.51;100.00;101438.50;6303516;28;20089;-74
2023/02/26 01:29:51;;;;;;;0.50;0.50;;;;;;;-0.67;100.00;101456.53;6310456;28;20352;-72
2023/02/26 01:32:59;;;;;;;4.70;0.63;;;;;;;-0.71;100.00;101457.38;6322589;28;20059;-74
2023/02/26 01:36:07;;;;;;;5.93;1.75;;;;;;;-0.65;100.00;101458.25;6311300;28;20048;-73
2023/02/26 01:39:17;;;;;;;5.57;0.70;;;;;;;-0.68;100.00;101459.94;6318582;28;20428;-74
2023/02/26 01:42:23;;;;;;;0.75;0.73;;;;;;;-0.61;100.00;101477.19;6327215;28;20040;-73
2023/02/26 01:45:31;;;;;;;0.80;0.43;;;;;;;-0.57;100.00;101473.78;6326769;28;20044;-74
2023/02/26 01:48:43;;;;;;;4.22;0.73;;;;;;;-0.61;100.00;101480.63;6309592;28;20055;-72
2023/02/26 01:51:49;;;;;;;1.67;1.05;;;;;;;-0.54;100.00;101482.41;6305594;28;20068;-74
2023/02/26 01:54:52;;;;;;;4.88;0.85;;;;;;;-0.62;100.00;101478.91;6304844;28;20354;-74
2023/02/26 01:57:57;;;;;;;0.70;0.40;;;;;;;-0.63;100.00;101489.25;6309532;28;20078;-73
2023/02/26 02:01:00;;;;;;;3.05;0.75;;;;;;;-0.60;100.00;101497.84;6305419;28;20055;-74
2023/02/26 02:04:02;;;;;;;1.08;0.68;;;;;;;-0.66;100.00;101491.81;6306092;28;20040;-73
2023/02/26 02:07:05;;;;;;;0.40;0.40;;;;;;;-0.64;100.00;101502.97;6304430;28;20045;-72
2023/02/26 02:10:09;;;;;;;1.90;1.10;;;;;;;-0.66;100.00;101509.88;6301168;28;20049;-73
2023/02/26 02:13:21;;;;;;;9.95;0.75;;;;;;;-0.62;100.00;101517.63;6301111;28;20345;-74
2023/02/26 02:16:33;;;;;;;7.90;1.05;;;;;;;-0.59;100.00;101525.41;6301068;28;20045;-73
2023/02/26 02:19:54;;;;;;;1.58;1.15;;;;;;;-0.65;100.00;101524.50;6308255;28;20040;-74
2023/02/26 02:23:12;;;;;;;1.40;0.40;;;;;;;-0.56;100.00;101527.13;6305231;28;20344;-74
2023/02/26 02:26:39;;;;;;;0.80;0.52;;;;;;;-0.59;100.00;101529.69;6306628;28;20055;-73
2023/02/26 02:30:09;;;;;;;1.23;0.90;;;;;;;-0.65;100.00;101537.41;6312857;28;20044;-73
2023/02/26 02:33:17;;;;;;;5.25;0.68;;;;;;;-0.70;100.00;101539.09;6302736;28;20179;-74
2023/02/26 02:36:29;;;;;;;0.60;0.45;;;;;;;-0.85;100.00;101542.44;6300595;28;20044;-74
2023/02/26 02:39:34;;;;;;;1.38;0.68;;;;;;;-0.78;100.00;101547.63;6317798;28;20048;-74
2023/02/26 02:42:42;;;;;;;1.33;0.57;;;;;;;-0.87;100.00;101537.25;6307219;28;20045;-74
2023/02/26 02:45:50;;;;;;;1.20;0.70;;;;;;;-0.89;100.00;101545.88;6308472;28;20163;-75
2023/02/26 02:48:58;;;;;;;1.42;0.70;;;;;;;-0.82;100.00;101543.34;6303536;28;20040;-72
2023/02/26 02:52:07;;;;;;;1.53;0.93;;;;;;;-0.88;100.00;101545.88;6321427;28;20043;-74
2023/02/26 02:55:14;;;;;;;1.27;0.88;;;;;;;-0.89;100.00;101557.03;6325670;28;20047;-72
2023/02/26 02:58:21;;;;;;;0.93;0.60;;;;;;;-0.82;100.00;101563.09;6312063;28;20040;-72
2023/02/26 03:01:25;;;;;;;1.80;1.20;;;;;;;-0.84;100.00;101577.72;6300852;28;20044;-72
2023/02/26 03:04:28;;;;;;;1.92;1.02;;;;;;;-0.81;100.00;101578.59;6299968;28;20048;-72
2023/02/26 03:07:33;;;;;;;5.32;0.75;;;;;;;-0.83;100.00;101582.88;6308752;28;20165;-72
2023/02/26 03:10:34;;;;;;;1.52;0.50;;;;;;;-0.85;100.00;101581.16;6325163;28;20048;-72
2023/02/26 03:13:38;;;;;;;2.55;1.17;;;;;;;-0.92;100.00;101584.53;6325027;28;20329;-72
2023/02/26 03:16:52;;;;;;;1.25;0.73;;;;;;;-0.97;100.00;101591.38;6318435;28;20044;-72
2023/02/26 03:20:09;;;;;;;2.90;1.13;;;;;;;-0.94;100.00;101594.00;6316535;28;20051;-72
2023/02/26 03:23:17;;;;;;;0.82;0.73;;;;;;;-0.89;100.00;101590.59;6324811;28;20040;-72
2023/02/26 03:26:27;;;;;;;0.82;0.40;;;;;;;-0.99;100.00;101593.09;6309358;28;20048;-72
2023/02/26 03:29:35;;;;;;;1.27;0.63;;;;;;;-0.96;100.00;101598.25;6316767;28;20355;-72
2023/02/26 03:32:45;;;;;;;1.10;0.68;;;;;;;-0.97;100.00;101605.13;6307041;28;20053;-72
2023/02/26 03:35:54;;;;;;;2.40;0.85;;;;;;;-0.98;100.00;101607.72;6299554;28;21092;-72
2023/02/26 03:38:58;;;;;;;;;;;;;;;-0.96;100.00;101616.31;6312712;28;20040;-72
2023/02/26 03:42:04;;;;;;;0.55;0.50;;;;;;;-1.11;100.00;101615.34;6321779;28;19920;-72
2023/02/26 03:45:10;;;;;;;0.60;0.35;;;;;;;-0.95;100.00;101618.03;6326153;28;20052;-72
2023/02/26 03:48:16;;;;;;;2.40;0.45;;;;;;;-0.92;100.00;101613.78;6325315;28;20051;-72
2023/02/26 03:51:20;;;;;;;0.98;0.88;;;;;;;-1.02;100.00;101620.56;6317310;28;20040;-72
2023/02/26 03:54:25;;;;;;;1.05;0.63;;;;;;;-0.96;100.00;101629.22;6305016;28;20047;-72
2023/02/26 03:57:27;;;;;;;1.95;1.20;;;;;;;-1.06;100.00;101631.72;6304438;28;20044;-73
2023/02/26 04:00:32;;;;;;;7.25;0.93;;;;;;;-1.05;100.00;101636.00;6304231;28;20052;-72
2023/02/26 04:03:40;;;;;;;0.28;0.22;;;;;;;-1.04;100.00;101642.06;6305384;28;20052;-72
2023/02/26 04:06:43;;;;;;;2.55;0.80;;;;;;;-1.06;100.00;101643.75;6323343;28;20459;-72
2023/02/26 04:09:47;;;;;;;1.38;0.70;;;;;;;-1.09;100.00;101646.28;6309761;28;20053;-72
2023/02/26 04:12:48;;;;;;;2.13;0.90;;;;;;;-1.17;100.00;101655.69;6303946;28;20052;-72
2023/02/26 04:15:50;;;;;;;11.52;0.88;;;;;;;-1.23;100.00;101660.78;6303806;28;20447;-72
2023/02/26 04:18:51;;;;;;;12.18;0.70;;;;;;;-1.20;100.00;101664.25;6308533;28;20055;-72
2023/02/26 04:21:54;;;;;;;4.70;0.55;;;;;;;-1.21;100.00;101667.69;6329195;28;20044;-72
2023/02/26 04:24:55;;;;;;;0.35;0.35;;;;;;;-1.27;100.00;101665.06;6328832;28;20051;-72
2023/02/26 04:27:57;;;;;;;1.55;0.50;;;;;;;-1.24;100.00;101674.53;6328886;28;20055;-72
2023/02/26 04:30:58;;;;;;;1.10;0.60;;;;;;;-1.30;100.00;101667.59;6328726;28;20355;-72
2023/02/26 04:34:00;;;;;;;1.60;0.65;;;;;;;-1.25;100.00;101681.41;6328789;28;20051;-72
2023/02/26 04:37:03;;;;;;;0.90;0.70;;;;;;;-1.29;100.00;101677.06;6328630;28;20040;-72
2023/02/26 04:40:06;;;;;;;4.72;0.82;;;;;;;-1.25;100.00;101683.97;6328447;28;20036;-72
2023/02/26 04:43:07;;;;;;;1.90;0.65;;;;;;;-1.22;100.00;101690.91;6328785;28;20059;-72
2023/02/26 04:46:08;;;;;;;1.85;0.75;;;;;;;-1.17;100.00;101690.09;6319648;28;20582;-72
2023/02/26 04:49:10;;;;;;;3.40;1.30;;;;;;;-1.22;100.00;101696.91;6303948;28;20032;-73
2023/02/26 04:52:12;;;;;;;2.28;0.77;;;;;;;-1.26;100.00;101707.19;6306849;28;20481;-72
2023/02/26 04:55:14;;;;;;;3.58;1.10;;;;;;;-1.35;100.00;101705.38;6305112;28;20043;-72
2023/02/26 04:58:16;;;;;;;0.63;0.40;;;;;;;-1.29;100.00;101713.16;6305815;28;20054;-72
2023/02/26 05:01:17;;;;;;;1.35;0.50;;;;;;;-1.34;100.00;101719.97;6305192;28;20032;-72
2023/02/26 05:04:19;;;;;;;1.67;1.08;;;;;;;-1.39;100.00;101719.06;6307262;28;20036;-72
2023/02/26 05:07:21;;;;;;;3.70;1.00;;;;;;;-1.44;100.00;101731.91;6304578;28;20036;-73
2023/02/26 05:10:23;;;;;;;2.90;0.85;;;;;;;-1.45;100.00;101729.28;6297453;28;20489;-73
2023/02/26 05:13:25;;;;;;;4.03;0.70;;;;;;;-1.57;100.00;101736.03;6305910;28;20043;-72
2023/02/26 05:16:26;;;;;;;1.23;0.30;;;;;;;-1.63;100.00;101737.69;6306131;28;20069;-72
2023/02/26 05:19:28;;;;;;;0.17;0.17;;;;;;;-1.56;100.00;101737.75;6304545;28;20443;-72
2023/02/26 05:22:30;;;;;;;2.35;1.23;;;;;;;-1.45;100.00;101740.50;6305169;28;20051;-72
2023/02/26 05:25:32;;;;;;;2.78;0.95;;;;;;;-1.46;100.00;101745.59;6304774;28;20134;-72
2023/02/26 05:28:35;;;;;;;0.68;0.40;;;;;;;-1.36;100.00;101750.06;6307374;28;20040;-74
2023/02/26 05:31:36;;;;;;;0.40;0.40;;;;;;;-1.40;100.00;101748.28;6305051;28;20105;-72
2023/02/26 05:34:38;;;;;;;0.90;0.60;;;;;;;-1.45;100.00;101752.50;6304634;28;20568;-72
2023/02/26 05:37:41;;;;;;;2.17;0.73;;;;;;;-1.42;100.00;101757.69;6305442;28;20047;-72
2023/02/26 05:40:42;;;;;;;0.90;0.57;;;;;;;-1.39;100.00;101768.91;6293702;28;20048;-74
2023/02/26 05:43:44;;;;;;;6.70;0.55;;;;;;;-1.41;100.00;101757.72;6293643;28;20050;-73
2023/02/26 05:46:45;;;;;;;3.45;0.70;;;;;;;-1.45;100.00;101768.84;6295293;28;20071;-72
2023/02/26 05:49:46;;;;;;;7.57;1.58;;;;;;;-1.40;100.00;101779.22;6303689;28;20044;-72
2023/02/26 05:52:49;;;;;;;1.08;0.85;;;;;;;-1.39;100.00;101776.66;6306855;28;20056;-72
2023/02/26 05:55:51;;;;;;;0.85;0.70;;;;;;;-1.46;100.00;101789.44;6305412;28;20360;-72
2023/02/26 05:58:53;;;;;;;4.63;1.65;;;;;;;-1.45;100.00;101798.88;6307947;28;20049;-72
2023/02/26 06:01:54;;;;;;;4.90;1.58;;;;;;;-1.41;100.00;101803.25;6306844;28;20051;-72
2023/02/26 06:04:55;;;;;;;4.45;1.95;;;;;;;-1.40;100.00;101812.72;6309512;28;20075;-72
2023/02/26 06:07:58;;;;;;;7.07;1.45;;;;;;;-1.38;100.00;101817.03;6302717;28;20467;-72
2023/02/26 06:10:59;;;;;;;1.65;0.85;;;;;;;-1.35;100.00;101816.22;6309745;28;20051;-75
2023/02/26 06:14:01;;;;;;;1.00;0.98;;;;;;;-1.44;100.00;101819.56;6301471;28;20048;-74
2023/02/26 06:17:02;;;;;;;1.20;1.00;;;;;;;-1.47;100.00;101832.38;6309561;28;20056;-73
2023/02/26 06:20:05;;;;;;;4.03;0.68;;;;;;;-1.43;100.00;101836.75;6309253;28;20040;-75
2023/02/26 06:23:07;;;;;;;0.93;0.57;;;;;;;-1.45;100.00;101843.59;6309500;28;20055;-74
2023/02/26 06:26:09;;;;;;;1.83;0.77;;;;;;;-1.45;100.00;101846.19;6313957;28;20495;-75
2023/02/26 06:29:10;;;;;;;3.22;0.73;;;;;;;-1.45;100.00;101856.50;6311622;28;20044;-73
2023/02/26 06:32:12;;;;;;;5.55;1.08;;;;;;;-1.41;100.00;101859.94;6300706;28;20044;-75
2023/02/26 06:35:13;;;;;;;1.02;0.45;;;;;;;-1.44;100.00;101862.50;6300685;28;20048;-76
2023/02/26 06:38:17;;;;;;;2.80;0.90;;;;;;;-1.36;100.00;101866.94;6300365;28;20055;-75
2023/02/26 06:41:18;;;;;;;0.88;0.80;;;;;;;-1.32;100.00;101871.28;6300517;28;20048;-75
2023/02/26 06:44:19;;;;;;;0.68;0.20;;;;;;;-1.31;100.00;101872.16;6300387;28;20051;-75
2023/02/26 06:47:21;;;;;;;3.30;0.60;;;;;;;-1.32;100.00;101871.28;6310027;28;20444;-75
2023/02/26 06:50:22;;;;;;;1.63;1.15;;;;;;;-1.26;100.00;101880.81;6314995;28;20109;-75
2023/02/26 06:53:25;;;;;;;7.55;0.98;;;;;;;-1.25;100.00;101882.53;6304243;28;20064;-74
2023/02/26 06:56:27;;;;;;;5.68;1.13;;;;;;;-1.21;100.00;101889.47;6300370;28;20048;-73
2023/02/26 06:59:28;;;;;;;0.98;0.65;;;;;;;-1.26;100.00;101885.09;6300047;28;20071;-75
2023/02/26 07:02:30;;;;;;;1.80;1.10;;;;;;;-1.25;100.00;101892.84;6303907;28;20040;-74
2023/02/26 07:05:31;;;;;;;1.67;0.70;;;;;;;-1.23;100.00;101898.88;6299850;28;20045;-76
2023/02/26 07:08:34;;;;;;;0.90;0.50;;;;;;;-1.26;100.00;101908.31;6301994;28;20075;-76
2023/02/26 07:11:35;;;;;;;0.75;0.60;;;;;;;-1.27;100.00;101910.03;6307089;28;20542;-75
2023/02/26 07:14:37;;;;;;;1.17;0.85;;;;;;;-1.32;100.00;101919.38;6308307;28;20055;-76
2023/02/26 07:17:38;;;;;;;2.47;0.60;;;;;;;-1.25;100.00;101921.22;6310923;28;20343;-76
2023/02/26 07:20:39;;;;;;;1.05;0.88;;;;;;;-1.20;100.00;101924.72;6316714;28;20040;-75
2023/02/26 07:23:42;;;;;;;10.82;2.08;;;;;;;-1.13;100.00;101933.44;6306390;28;20054;-76
2023/02/26 07:26:43;;;;;;;0.60;0.57;;;;;;;-1.07;100.00;101936.94;6299535;28;20433;-76
2023/02/26 07:29:45;;;;;;;4.43;1.05;;;;;;;-1.08;100.00;101936.94;6319106;28;20063;-74
2023/02/26 07:32:46;;;;;;;1.67;0.70;;;;;;;-1.04;100.00;101943.88;6324793;28;20052;-75
2023/02/26 07:35:48;;;;;;;2.63;0.68;;;;;;;-1.02;100.00;101948.19;6322220;28;20048;-73
2023/02/26 07:38:50;;;;;;;3.15;0.98;;;;;;;-1.05;100.00;101942.13;6305112;28;20040;-75
2023/02/26 07:41:52;;;;;;;1.08;0.98;;;;;;;-1.05;100.00;101950.72;6299811;28;20040;-75
2023/02/26 07:44:53;;;;;;;1.17;0.47;;;;;;;-0.98;100.00;101950.81;6299579;28;20057;-75
2023/02/26 07:47:55;;;;;;;0.52;0.43;;;;;;;-0.94;100.00;101957.75;6320990;28;20055;-75
2023/02/26 07:50:57;;;;;;;1.02;0.68;;;;;;;-0.89;100.00;101969.00;6315969;28;20048;-75
2023/02/26 07:53:59;;;;;;;1.02;0.73;;;;;;;-0.85;100.00;101979.38;6309263;28;20049;-75
2023/02/26 07:57:01;;;;;;;1.63;0.88;;;;;;;-0.75;100.00;101989.81;6307384;28;20037;-74
2023/02/26 08:00:03;;;;;;;0.98;0.50;;;;;;;-0.79;100.00;101988.91;6313279;28;20429;-74
2023/02/26 08:03:04;;;;;;;1.02;0.40;;;;;;;-0.74;100.00;101992.41;6324622;28;20044;-74
2023/02/26 08:06:07;;;;;;;3.92;1.90;;;;;;;-0.74;100.00;101996.72;6321585;28;20052;-74
2023/02/26 08:09:09;;;;;;;2.97;0.90;;;;;;;-0.61;100.00;101993.44;6310110;28;20048;-74
2023/02/26 08:12:11;;;;;;;0.43;0.43;;;;;;;-0.58;100.00;101999.53;6314643;28;20383;-74
2023/02/26 08:15:13;;;;;;;1.30;0.68;;;;;;;-0.57;100.00;102008.13;6323765;28;20344;-74
2023/02/26 08:18:14;;;;;;;0.70;0.60;;;;;;;-0.56;100.00;102012.44;6315712;28;20177;-74
2023/02/26 08:21:15;;;;;;;0.90;0.60;;;;;;;-0.52;100.00;102004.75;6300557;28;20052;-74
2023/02/26 08:24:18;;;;;;;2.05;0.93;;;;;;;-0.46;100.00;102011.69;6304888;28;20048;-74
2023/02/26 08:27:19;;;;;;;1.58;0.73;;;;;;;-0.45;100.00;102026.38;6306102;28;20048;-74
2023/02/26 08:30:21;;;;;;;1.08;0.43;;;;;;;-0.40;100.00;102021.25;6310557;28;20044;-74
2023/02/26 08:33:22;;;;;;;3.03;0.85;;;;;;;-0.30;100.00;102023.97;6311990;28;20436;-74
2023/02/26 08:36:24;;;;;;;0.60;0.47;;;;;;;-0.25;100.00;102026.59;6317513;28;20051;-74
2023/02/26 08:39:27;;;;;;;0.60;0.43;;;;;;;-0.17;100.00;102031.88;6306731;28;20131;-72
2023/02/26 08:42:28;;;;;;;0.45;0.40;;;;;;;-0.18;100.00;102032.69;6307448;28;20044;-72
2023/02/26 08:45:30;;;;;;;0.40;0.40;;;;;;;-0.12;100.00;102041.41;6309890;28;20048;-72
2023/02/26 08:48:32;;;;;;;2.08;0.90;;;;;;;-0.05;100.00;102044.91;6302579;28;20052;-75
2023/02/26 08:51:33;;;;;;;2.58;0.52;;;;;;;0.01;100.00;102054.47;6304728;28;20056;-75
2023/02/26 08:54:36;;;;;;;0.55;0.28;;;;;;;0.08;99.69;102057.09;6308033;28;20157;-72
2023/02/26 08:57:37;;;;;;;1.65;0.88;;;;;;;0.12;98.12;102063.19;6312486;28;20049;-74
2023/02/26 09:00:38;;;;;;;0.70;0.45;;;;;;;0.14;98.02;102070.13;6303495;28;20519;-74
2023/02/26 09:03:40;;;;;;;3.22;1.67;;;;;;;0.20;97.29;102059.84;6301845;28;20045;-75
2023/02/26 09:06:41;;;;;;;0.57;0.47;;;;;;;0.30;95.16;102065.97;6302637;28;20051;-74
2023/02/26 09:09:44;;;;;;;5.00;0.50;;;;;;;0.43;96.44;102077.31;6302497;28;20053;-74
2023/02/26 09:12:45;;;;;;;0.35;0.35;;;;;;;0.51;95.12;102075.66;6302745;28;20044;-72
2023/02/26 09:15:49;;;;;;;0.57;0.50;;;;;;;0.52;96.33;102077.38;6313339;28;20436;-72
2023/02/26 09:18:50;;;;;;;0.73;0.47;;;;;;;0.56;95.38;102076.56;6319467;28;20467;-72
2023/02/26 09:21:51;;;;;;;1.63;0.50;;;;;;;0.62;94.68;102086.09;6310907;28;20040;-72
2023/02/26 09:24:54;;;;;;;1.85;0.47;;;;;;;0.67;91.37;102082.69;6302173;28;20067;-72
2023/02/26 09:27:55;;;;;;;3.22;1.05;;;;;;;0.69;89.76;102083.59;6302312;28;20040;-72
2023/02/26 09:30:57;;;;;;;1.58;0.50;;;;;;;0.83;89.88;102095.78;6310615;28;20052;-72
2023/02/26 09:33:58;;;;;;;1.45;0.30;;;;;;;0.86;89.69;102088.03;6306366;28;20125;-73
2023/02/26 09:36:59;;;;;;;1.17;0.52;;;;;;;0.89;88.64;102101.84;6327193;28;20048;-73
2023/02/26 09:40:03;;;;;;;0.30;0.30;;;;;;;0.92;87.57;102096.72;6325815;28;20044;-71
2023/02/26 09:43:33;;;;;;;0.52;0.50;;;;;;;1.10;86.89;102111.53;6326936;28;20461;-72
2023/02/26 09:46:42;;;;;;;0.20;0.20;;;;;;;1.12;85.98;102111.53;6321370;28;20364;-72
2023/02/26 09:49:52;;;;;;;0.55;0.55;;;;;;;1.13;85.60;102115.84;6326876;28;20356;-71
2023/02/26 09:53:00;;;;;;;0.55;0.40;;;;;;;1.15;87.35;102114.16;6327127;28;20421;-72
2023/02/26 09:56:07;;;;;;;1.10;0.55;;;;;;;1.19;88.52;102115.91;6326605;28;20344;-72
2023/02/26 09:59:09;;;;;;;0.57;0.40;;;;;;;1.19;87.17;102121.09;6326965;28;20082;-72
2023/02/26 10:02:19;;;;;;;2.05;0.63;;;;;;;1.25;86.16;102123.72;6315994;28;20061;-72
2023/02/26 10:05:26;;;;;;;1.13;0.40;;;;;;;1.21;84.10;102122.81;6302380;28;20398;-72
2023/02/26 10:08:34;;;;;;;2.42;0.60;;;;;;;1.23;86.57;102121.13;6316245;28;20048;-72
2023/02/26 10:11:43;;;;;;;4.38;0.68;;;;;;;1.21;84.82;102127.13;6325027;28;20044;-72
2023/02/26 10:14:50;;;;;;;0.55;0.47;;;;;;;1.24;85.06;102134.94;6326242;28;20364;-72
2023/02/26 10:18:05;;;;;;;7.22;0.50;;;;;;;1.25;86.27;102142.69;6326202;28;20040;-72
2023/02/26 10:21:12;;;;;;;1.38;0.60;;;;;;;1.32;86.75;102138.44;6326131;28;20436;-71
2023/02/26 10:24:19;;;;;;;1.67;0.50;;;;;;;1.41;85.57;102140.22;6326175;28;20189;-72
2023/02/26 10:27:33;;;;;;;1.05;0.40;;;;;;;1.45;85.73;102141.97;6325743;28;20352;-72
2023/02/26 10:30:40;;;;;;;0.40;0.40;;;;;;;1.46;85.62;102149.78;6326119;28;20048;-72
2023/02/26 10:33:50;;;;;;;2.25;0.47;;;;;;;1.50;85.15;102145.47;6308014;28;20055;-72
2023/02/26 10:37:03;;;;;;;1.63;0.60;;;;;;;1.43;85.70;102146.28;6301869;28;20089;-71
2023/02/26 10:40:12;;;;;;;0.65;0.30;;;;;;;1.51;84.33;102142.03;6302946;28;20052;-71
2023/02/26 10:43:19;;;;;;;0.73;0.50;;;;;;;1.55;84.64;102146.38;6302479;28;20052;-71
2023/02/26 10:46:35;;;;;;;0.93;0.60;;;;;;;1.64;85.13;102150.75;6304064;28;20045;-71
2023/02/26 10:49:51;;;;;;;3.22;0.52;;;;;;;1.75;85.15;102162.03;6308251;28;20059;-72
2023/02/26 10:52:54;;;;;;;6.63;1.05;;;;;;;2.05;86.83;102152.69;6299208;28;20372;-72
2023/02/26 10:56:02;;;;;;;1.10;0.50;;;;;;;2.22;84.19;102151.00;6313853;28;20051;-72
2023/02/26 10:59:05;;;;;;;3.40;0.73;;;;;;;2.41;80.32;102160.59;6308653;28;20049;-72
2023/02/26 11:02:36;;;;;;;0.30;0.30;;;;;;;2.56;79.91;102154.59;6308651;28;20041;-72
2023/02/26 11:05:39;;;;;;;0.98;0.60;;;;;;;2.69;77.97;102163.28;6309458;28;20445;-78
2023/02/26 11:08:43;;;;;;;0.65;0.50;;;;;;;2.78;78.24;102163.28;6302854;28;20048;-71
2023/02/26 11:11:50;;;;;;;0.30;0.30;;;;;;;2.83;76.27;102160.69;6310695;28;20046;-72
2023/02/26 11:14:53;;;;;;;1.42;1.05;;;;;;;2.94;77.23;102169.34;6299852;28;20329;-72
2023/02/26 11:17:58;;;;;;;3.22;1.17;;;;;;;2.98;74.68;102166.75;6302037;28;20045;-72
2023/02/26 11:21:00;;;;;;;1.60;0.80;;;;;;;2.93;76.10;102172.81;6303888;28;20051;-71
2023/02/26 11:24:06;;;;;;;5.32;0.73;;;;;;;2.58;74.62;102165.81;6302935;28;20044;-72
2023/02/26 11:27:14;;;;;;;0.82;0.40;;;;;;;2.46;76.17;102161.47;6299676;28;20048;-71
2023/02/26 11:30:18;;;;;;;2.22;0.70;;;;;;;2.43;75.40;102163.19;6299107;28;20055;-72
2023/02/26 11:33:24;;;;;;;2.55;0.68;;;;;;;2.72;75.81;102158.06;6299260;28;20044;-71
2023/02/26 11:36:29;;;;;;;0.93;0.60;;;;;;;2.96;76.36;102165.03;6302826;28;20157;-71
2023/02/26 11:39:35;;;;;;;1.75;0.43;;;;;;;3.14;75.37;102162.47;6307933;28;20052;-72
2023/02/26 11:42:41;;;;;;;2.28;0.30;;;;;;;3.42;73.75;102167.63;6309146;28;20557;-72
2023/02/26 11:45:47;;;;;;;0.50;0.30;;;;;;;3.59;68.94;102154.59;6317344;28;20057;-72
2023/02/26 11:48:49;;;;;;;7.10;2.75;;;;;;;3.83;65.72;102164.97;6307981;28;20060;-72
2023/02/26 11:52:05;;;;;;;4.05;1.92;;;;;;;3.97;65.83;102165.78;6299821;28;20045;-72
2023/02/26 11:55:19;;;;;;;37.25;12.50;;;;;;;4.12;65.95;102159.66;6299652;28;20049;-72
2023/02/26 11:58:22;;;;;;;20.65;5.72;;;;;;;4.30;65.80;102167.38;6307759;28;20044;-72
2023/02/26 12:01:29;;;;;;;11.13;4.30;;;;;;;4.40;63.31;102163.00;6323625;28;20131;-71
2023/02/26 12:04:31;;;;;;;2.05;1.05;;;;;;;4.39;62.87;102168.22;6328307;28;20079;-72
2023/02/26 12:07:33;;;;;;;10.55;2.17;;;;;;;4.50;64.21;102163.84;6312773;28;20048;-72
2023/02/26 12:10:39;;;;;;;0.52;0.52;;;;;;;4.64;62.69;102161.16;6310438;28;20044;-72
2023/02/26 12:13:52;;;;;;;8.55;2.08;;;;;;;4.82;61.71;102161.91;6303739;28;20052;-72
2023/02/26 12:17:07;;;;;;;15.57;1.02;;;;;;;4.97;62.14;102160.91;6305059;28;20048;-72
2023/02/26 12:20:18;;;;;;;0.75;0.47;;;;;;;5.17;59.00;102159.88;6306540;28;20049;-73
2023/02/26 12:24:04;;;;;;;3.00;0.90;;;;;;;5.11;57.98;102160.81;6311687;28;20072;-72
2023/02/26 12:27:14;;;;;;;3.97;0.95;;;;;;;5.17;59.52;102159.88;6304093;28;20048;-72
2023/02/26 12:30:35;;;;;;;3.33;0.70;;;;;;;5.15;56.05;102167.72;6312141;28;20052;-72
2023/02/26 12:33:47;;;;;;;2.03;0.98;;;;;;;5.28;57.61;102169.38;6303854;28;20044;-72
2023/02/26 12:37:04;;;;;;;1.05;0.80;;;;;;;5.40;56.08;102167.50;6303350;28;20052;-72
2023/02/26 12:40:21;;;;;;;1.13;0.70;;;;;;;5.29;54.90;102160.66;6306345;28;20056;-72
2023/02/26 12:43:32;;;;;;;3.92;0.57;;;;;;;5.48;54.70;102163.09;6312949;28;20044;-72
2023/02/26 12:46:46;;;;;;;1.75;0.45;;;;;;;5.53;54.92;102158.69;6308739;28;20055;-72
2023/02/26 12:50:06;;;;;;;0.50;0.20;;;;;;;5.59;56.18;102163.88;6306195;28;20048;-72
2023/02/26 12:53:25;;;;;;;0.22;0.22;;;;;;;5.65;53.51;102166.41;6291628;28;20075;-72
2023/02/26 12:56:44;;;;;;;1.00;0.40;;;;;;;5.60;53.07;102169.06;6327673;28;20051;-72
2023/02/26 13:00:04;;;;;;;0.47;0.47;;;;;;;5.60;52.49;102169.06;6316293;28;20357;-72
2023/02/26 13:03:40;;;;;;;0.90;0.50;;;;;;;5.70;53.97;102169.84;6303216;28;20047;-72
2023/02/26 13:07:18;;;;;;;1.80;0.50;;;;;;;5.74;50.40;102160.25;6319373;28;20055;-72
2023/02/26 13:10:28;;;;;;;1.33;0.70;;;;;;;5.89;52.06;102162.66;6313479;28;20059;-72
2023/02/26 13:13:51;;;;;;;14.75;4.35;;;;;;;5.72;52.01;102156.75;6319669;28;20455;-72
2023/02/26 13:16:59;;;;;;;11.23;3.65;;;;;;;6.07;53.41;102159.03;6307334;28;20048;-72
2023/02/26 13:20:10;;;;;;;18.30;5.60;;;;;;;6.02;52.31;102161.69;6302648;28;20505;-72
2023/02/26 13:23:17;;;;;;;19.42;5.88;;;;;;;6.14;52.16;102165.03;6302532;28;20125;-72
2023/02/26 13:26:21;;;;;;;2.60;1.52;;;;;;;6.50;53.06;102153.25;6302298;28;20043;-72
2023/02/26 13:29:26;;;;;;;2.15;0.80;;;;;;;6.54;51.26;102154.91;6302607;28;20451;-72
2023/02/26 13:32:29;;;;;;;4.22;0.80;;;;;;;6.54;52.35;102153.19;6302553;28;20056;-73
2023/02/26 13:35:35;;;;;;;2.67;1.30;;;;;;;6.73;51.66;102161.63;6301883;28;20048;-73
2023/02/26 13:38:48;;;;;;;0.50;0.45;;;;;;;6.42;51.97;102153.34;6314821;28;20052;-73
2023/02/26 13:42:01;;;;;;;2.88;1.20;;;;;;;6.35;52.95;102163.00;6316147;28;20151;-73
2023/02/26 13:45:25;;;;;;;1.42;0.50;;;;;;;6.38;51.27;102159.50;6323200;28;20352;-73
2023/02/26 13:48:38;;;;;;;0.70;0.50;;;;;;;6.45;52.79;102170.72;6326853;28;20329;-77
2023/02/26 13:51:42;;;;;;;0.50;0.50;;;;;;;6.00;51.98;102168.69;6313901;28;20363;-73
2023/02/26 13:54:45;;;;;;;0.63;0.50;;;;;;;5.98;53.25;102154.78;6302932;28;20049;-73
2023/02/26 13:57:52;;;;;;;2.83;0.82;;;;;;;6.25;56.73;102153.56;6309743;28;20048;-74
2023/02/26 14:01:01;;;;;;;2.28;0.52;;;;;;;6.25;53.88;102150.97;6306873;28;20079;-74
2023/02/26 14:04:21;;;;;;;4.03;0.50;;;;;;;6.64;53.06;102151.31;6301277;28;20059;-74
2023/02/26 14:07:48;;;;;;;1.23;0.50;;;;;;;6.31;56.07;102150.91;6306695;28;20044;-73
2023/02/26 14:10:56;;;;;;;4.07;0.77;;;;;;;5.81;57.37;102169.72;6301227;28;20124;-74
2023/02/26 14:14:16;;;;;;;3.17;0.60;;;;;;;5.63;58.18;102164.69;6301321;28;20040;-74
2023/02/26 14:17:37;;;;;;;3.08;0.45;;;;;;;5.53;59.18;102177.81;6301230;28;20036;-74
2023/02/26 14:20:39;;;;;;;2.63;0.63;;;;;;;5.48;60.51;102166.56;6301267;28;20048;-73
2023/02/26 14:23:41;;;;;;;0.77;0.40;;;;;;;5.55;61.59;102162.19;6300770;28;20364;-73